Grandview on Hudson, New York
Current Conditions -  °F | °C
As of 7:56 PM on Monday 22 Dec 2014 (Local Time) from KHPN Reporting Station
Drizzle Drizzle  
Wind Chill:   Ceiling: 500
Heat Index:   Visibility: 2mi
Dew Point:   Wind: 9mph
Humidity: 92%   Direction: 90°E
Pressure: 30.21"   Gusts: 21mph
Location:  41.0938°N, 73.9254°W
Report Text: KHPN 230056Z 09008G18KT 2SM -DZ BR BKN005 OVC008 06/04 A3021 RMK WATERSPOUT B37 WATERSPOUT E42 AO2 DZB38 SLP237 P0000 T00560044
Loading
Personal Weather Stations






























Interactive Weather Map New forecast layout! Learn more

10-Day Weather Forecast

Advertisements
Track Severe Weather on mobile